Time;durP1;ratioP1;P1;durP2;ratioP2;P2;SDS_P1;SDS_P2;PMS_P1;PMS_P2;Temp;Humidity;BMP_temperature;BMP_pressure;BME280_temperature;BME280_humidity;BME280_pressure;Samples;Min_cycle;Max_cycle;Signal;HPM_P1;HPM_P2
2021/01/16 00:02:00;;;;;;;37.83;35.78;;;1.30;98.20;;;;;;4994533;28;20217;-76
2021/01/16 00:04:27;;;;;;;31.53;29.73;;;1.20;98.20;;;;;;4992779;28;20187;-76
2021/01/16 00:06:53;;;;;;;34.33;32.35;;;1.30;98.60;;;;;;4993842;28;20210;-76
2021/01/16 00:09:19;;;;;;;36.78;34.55;;;1.30;98.80;;;;;;4993876;28;20564;-76
2021/01/16 00:11:48;;;;;;;31.75;29.67;;;1.30;98.50;;;;;;4994411;28;20168;-76
2021/01/16 00:14:13;;;;;;;34.42;32.38;;;1.20;98.20;;;;;;4994264;28;20175;-76
2021/01/16 00:16:39;;;;;;;33.70;31.20;;;1.20;98.20;;;;;;4992531;28;20180;-76
2021/01/16 00:19:04;;;;;;;36.10;33.70;;;1.30;98.50;;;;;;4993943;28;20264;-76
2021/01/16 00:21:30;;;;;;;39.00;36.70;;;1.20;98.50;;;;;;4994588;28;20178;-76
2021/01/16 00:23:55;;;;;;;31.10;29.30;;;1.30;98.90;;;;;;4995522;28;20172;-76
2021/01/16 00:26:21;;;;;;;37.67;35.10;;;1.30;98.70;;;;;;4997602;28;20631;-76
2021/01/16 00:28:46;;;;;;;39.93;37.77;;;1.30;98.60;;;;;;4997908;28;20562;-76
2021/01/16 00:31:12;;;;;;;45.03;42.20;;;1.20;98.40;;;;;;4996393;28;20203;-76
2021/01/16 00:33:37;;;;;;;40.77;38.47;;;1.30;98.80;;;;;;4998040;28;20196;-76
2021/01/16 00:36:05;;;;;;;40.50;37.63;;;1.30;98.60;;;;;;4996045;28;20171;-76
2021/01/16 00:38:37;;;;;;;39.47;36.72;;;1.30;98.60;;;;;;4997453;28;20199;-76
2021/01/16 00:41:03;;;;;;;39.45;37.03;;;1.30;98.40;;;;;;4997741;28;20160;-76
2021/01/16 00:43:29;;;;;;;39.83;37.40;;;1.30;98.50;;;;;;4997928;28;20168;-76
2021/01/16 00:45:54;;;;;;;40.90;38.73;;;1.30;98.80;;;;;;4997243;28;20172;-76
2021/01/16 00:48:22;;;;;;;35.43;33.47;;;1.30;98.90;;;;;;4997847;28;20221;-76
2021/01/16 00:50:51;;;;;;;34.05;31.83;;;1.20;98.40;;;;;;4997275;28;20176;-76
2021/01/16 00:53:17;;;;;;;33.97;31.77;;;1.20;98.70;;;;;;4997484;28;20580;-76
2021/01/16 00:55:43;;;;;;;39.70;37.43;;;1.20;98.70;;;;;;4997238;28;20167;-76
2021/01/16 00:58:13;;;;;;;33.30;31.57;;;1.10;98.30;;;;;;4997056;28;20171;-76
2021/01/16 01:00:41;;;;;;;40.42;37.63;;;1.10;98.20;;;;;;4995801;28;20972;-76
2021/01/16 01:03:07;;;;;;;33.65;31.63;;;1.20;98.20;;;;;;4997021;28;20192;-76
2021/01/16 01:05:33;;;;;;;33.38;31.02;;;1.10;98.40;;;;;;4997124;28;20176;-76
2021/01/16 01:07:59;;;;;;;38.90;36.47;;;1.20;98.60;;;;;;4997496;28;20172;-76
2021/01/16 01:10:37;;;;;;;33.00;30.90;;;1.20;98.90;;;;;;4997384;28;20427;-76
2021/01/16 01:13:02;;;;;;;33.90;31.90;;;1.20;98.80;;;;;;4997321;28;20202;-76
2021/01/16 01:15:28;;;;;;;33.07;31.13;;;1.20;99.00;;;;;;4996856;28;20183;-76
2021/01/16 01:17:56;;;;;;;34.73;32.40;;;1.10;98.90;;;;;;4997005;28;20187;-76
2021/01/16 01:20:22;;;;;;;41.47;38.85;;;1.00;98.60;;;;;;4996685;28;20210;-76
2021/01/16 01:22:48;;;;;;;36.40;34.33;;;0.90;98.80;;;;;;4996974;28;20172;-76
2021/01/16 01:25:15;;;;;;;42.55;40.20;;;0.90;98.70;;;;;;4996889;28;20176;-76
2021/01/16 01:27:41;;;;;;;34.78;32.88;;;0.80;98.70;;;;;;4996983;28;20195;-76
2021/01/16 01:30:07;;;;;;;35.83;33.72;;;0.80;99.10;;;;;;4996459;28;20192;-76
2021/01/16 01:32:33;;;;;;;38.63;36.58;;;0.80;99.20;;;;;;4996436;28;20203;-76
2021/01/16 01:34:59;;;;;;;39.33;37.22;;;0.90;99.20;;;;;;4995975;28;20560;-76
2021/01/16 01:37:25;;;;;;;32.67;30.67;;;0.80;99.10;;;;;;4996267;28;20218;-76
2021/01/16 01:39:50;;;;;;;30.93;29.20;;;0.90;99.00;;;;;;4996293;28;20439;-76
2021/01/16 01:42:20;;;;;;;30.20;28.40;;;0.90;98.90;;;;;;4996870;28;20195;-76
2021/01/16 01:44:48;;;;;;;34.88;32.72;;;0.90;99.20;;;;;;4996278;28;20674;-76
2021/01/16 01:47:15;;;;;;;30.73;28.88;;;0.90;99.10;;;;;;4996258;28;20184;-76
2021/01/16 01:49:42;;;;;;;34.65;32.25;;;0.90;98.90;;;;;;4994836;28;20199;-76
2021/01/16 01:52:10;;;;;;;31.42;29.42;;;0.90;99.10;;;;;;4996357;28;20639;-76
2021/01/16 01:54:37;;;;;;;38.33;36.03;;;1.00;99.50;;;;;;4996075;28;20311;-76
2021/01/16 01:57:05;;;;;;;32.50;30.65;;;1.00;99.50;;;;;;4995979;28;20168;-76
2021/01/16 01:59:35;;;;;;;37.67;35.65;;;1.00;99.40;;;;;;4996209;28;20241;-76
2021/01/16 02:02:02;;;;;;;39.40;37.15;;;0.90;98.70;;;;;;4996381;28;20554;-76
2021/01/16 02:04:32;;;;;;;37.28;35.25;;;1.00;99.10;;;;;;4994630;28;20208;-76
2021/01/16 02:06:59;;;;;;;38.22;36.00;;;1.00;99.40;;;;;;4996211;28;20520;-76
2021/01/16 02:09:25;;;;;;;42.15;39.90;;;1.00;99.60;;;;;;4995834;28;20200;-76
2021/01/16 02:11:53;;;;;;;44.42;41.63;;;0.90;99.20;;;;;;4995668;28;20642;-76
2021/01/16 02:14:23;;;;;;;40.63;38.25;;;0.90;99.10;;;;;;4995751;28;20168;-76
2021/01/16 02:16:51;;;;;;;43.33;40.85;;;1.00;99.40;;;;;;4995578;28;20184;-76
2021/01/16 02:19:43;;;;;;;53.45;50.58;;;1.00;99.40;;;;;;4995800;28;20247;-76
2021/01/16 02:22:09;;;;;;;44.65;42.17;;;1.00;99.50;;;;;;4994821;28;20194;-76
2021/01/16 02:24:42;;;;;;;42.40;39.58;;;1.00;99.60;;;;;;4995808;28;20172;-76
2021/01/16 02:27:29;;;;;;;41.67;39.17;;;1.00;99.00;;;;;;4995347;28;20168;-76
2021/01/16 02:29:55;;;;;;;38.45;36.20;;;1.00;99.20;;;;;;4995707;28;20203;-76
2021/01/16 02:32:23;;;;;;;32.17;30.13;;;1.00;99.30;;;;;;4995287;28;20200;-76
2021/01/16 02:34:51;;;;;;;38.45;36.17;;;1.00;99.10;;;;;;4995608;28;20168;-76
2021/01/16 02:37:29;;;;;;;37.20;35.17;;;1.00;99.30;;;;;;4995156;28;20275;-76
2021/01/16 02:40:03;;;;;;;31.42;29.63;;;1.10;99.40;;;;;;4995176;28;20582;-76
2021/01/16 02:43:03;;;;;;;33.83;31.73;;;1.10;99.30;;;;;;4994401;28;20171;-76
2021/01/16 02:45:34;;;;;;;35.42;33.30;;;1.10;99.30;;;;;;4994034;28;20496;-76
2021/01/16 02:48:26;;;;;;;30.45;28.67;;;1.00;99.00;;;;;;4995373;28;20160;-76
2021/01/16 02:50:54;;;;;;;33.33;31.30;;;1.00;99.10;;;;;;4994370;28;20175;-76
2021/01/16 02:53:23;;;;;;;31.15;29.13;;;1.00;99.20;;;;;;4995531;28;20537;-76
2021/01/16 02:55:51;;;;;;;34.28;32.13;;;1.00;99.00;;;;;;4995412;28;20168;-76
2021/01/16 02:58:19;;;;;;;34.97;32.78;;;1.00;99.30;;;;;;4994862;28;20262;-76
2021/01/16 03:00:45;;;;;;;33.05;30.90;;;1.00;99.30;;;;;;4994847;28;20168;-76
2021/01/16 03:03:12;;;;;;;33.08;30.90;;;1.00;99.40;;;;;;4994840;28;20653;-76
2021/01/16 03:05:37;;;;;;;29.40;27.33;;;1.00;99.50;;;;;;4994697;28;20183;-76
2021/01/16 03:08:04;;;;;;;34.10;31.90;;;0.90;99.40;;;;;;4995438;28;20176;-76
2021/01/16 03:10:31;;;;;;;38.28;36.05;;;0.90;99.50;;;;;;4994816;28;20562;-76
2021/01/16 03:12:56;;;;;;;33.92;31.80;;;0.90;99.50;;;;;;4994870;28;20200;-76
2021/01/16 03:15:22;;;;;;;32.37;29.87;;;0.90;99.50;;;;;;4994587;28;20594;-76
2021/01/16 03:18:03;;;;;;;32.73;30.70;;;0.80;99.60;;;;;;4993714;28;20627;-76
2021/01/16 03:20:30;;;;;;;33.75;31.63;;;0.80;99.60;;;;;;4995170;28;20669;-76
2021/01/16 03:22:59;;;;;;;36.05;33.65;;;0.80;99.70;;;;;;4994547;28;20184;-76
2021/01/16 03:25:28;;;;;;;36.80;34.40;;;0.80;99.70;;;;;;4994743;28;20660;-76
2021/01/16 03:27:54;;;;;;;32.35;30.55;;;0.80;99.70;;;;;;4994806;28;20175;-76
2021/01/16 03:30:20;;;;;;;42.30;39.40;;;0.80;99.90;;;;;;4994286;28;20200;-76
2021/01/16 03:32:48;;;;;;;39.53;37.13;;;0.80;99.70;;;;;;4993020;28;20550;-76
2021/01/16 03:35:21;;;;;;;33.20;30.85;;;0.70;99.50;;;;;;4994358;28;20167;-76
2021/01/16 03:37:47;;;;;;;33.70;31.45;;;0.80;99.70;;;;;;4994122;28;20188;-76
2021/01/16 03:40:14;;;;;;;35.47;32.90;;;0.80;99.80;;;;;;4992933;28;20200;-76
2021/01/16 03:42:40;;;;;;;33.00;30.88;;;0.90;99.80;;;;;;4994576;28;20172;-76
2021/01/16 03:45:09;;;;;;;31.35;29.15;;;0.90;99.80;;;;;;4994720;28;20214;-76
2021/01/16 03:47:35;;;;;;;31.02;28.52;;;0.90;99.50;;;;;;4994712;28;20204;-76
2021/01/16 03:50:00;;;;;;;34.10;32.28;;;0.80;99.50;;;;;;4994188;28;20234;-76
2021/01/16 03:52:48;;;;;;;35.93;33.80;;;0.80;99.50;;;;;;4994025;28;20243;-76
2021/01/16 03:55:14;;;;;;;31.08;28.88;;;0.80;99.80;;;;;;4994391;28;20169;-76
2021/01/16 03:57:39;;;;;;;31.10;29.00;;;0.90;99.90;;;;;;4994758;28;20168;-76
2021/01/16 04:00:09;;;;;;;34.50;32.47;;;0.90;99.70;;;;;;5000755;28;20223;-76
2021/01/16 04:02:35;;;;;;;35.80;33.30;;;0.90;99.70;;;;;;5000559;28;20260;-76
2021/01/16 04:05:00;;;;;;;32.65;30.35;;;0.90;99.60;;;;;;5000551;28;20737;-76
2021/01/16 04:07:26;;;;;;;36.97;34.70;;;1.00;99.60;;;;;;5000439;28;20254;-76
2021/01/16 04:09:51;;;;;;;34.63;32.50;;;0.90;99.50;;;;;;5000411;28;20191;-76
2021/01/16 04:12:17;;;;;;;37.67;35.40;;;0.90;99.50;;;;;;5000374;28;20286;-76
2021/01/16 04:14:42;;;;;;;36.27;34.13;;;0.90;99.70;;;;;;5000700;28;20187;-76
2021/01/16 04:17:09;;;;;;;36.97;34.60;;;0.90;99.80;;;;;;4999043;28;20258;-76
2021/01/16 04:19:35;;;;;;;32.70;30.38;;;0.90;99.80;;;;;;5000662;28;20658;-76
2021/01/16 04:22:01;;;;;;;37.30;35.00;;;1.00;99.80;;;;;;5000637;28;20259;-76
2021/01/16 04:24:27;;;;;;;33.97;31.75;;;0.90;99.40;;;;;;4999061;28;20415;-76
2021/01/16 04:26:53;;;;;;;34.42;32.38;;;0.90;99.70;;;;;;5000284;28;20191;-76
2021/01/16 04:29:19;;;;;;;33.10;31.17;;;0.90;99.70;;;;;;5000853;28;20192;-76
2021/01/16 04:31:45;;;;;;;36.67;34.22;;;1.00;99.80;;;;;;5000224;28;20180;-76
2021/01/16 04:34:11;;;;;;;34.70;32.23;;;0.90;99.70;;;;;;5000477;28;20661;-76
2021/01/16 04:36:36;;;;;;;33.43;31.43;;;0.90;99.90;;;;;;5000011;28;20188;-76
2021/01/16 04:39:03;;;;;;;35.63;33.57;;;0.90;99.80;;;;;;5000468;28;20192;-76
2021/01/16 04:41:30;;;;;;;40.15;37.65;;;1.00;99.70;;;;;;5000178;28;20199;-76
2021/01/16 04:43:57;;;;;;;39.08;36.80;;;1.00;99.70;;;;;;5000269;28;20178;-76
2021/01/16 04:46:24;;;;;;;40.92;38.58;;;1.00;99.70;;;;;;5000354;28;20179;-76
2021/01/16 04:48:57;;;;;;;44.75;41.80;;;1.10;99.70;;;;;;5000276;28;20242;-76
2021/01/16 04:51:24;;;;;;;34.50;32.13;;;1.10;99.60;;;;;;5000463;28;20160;-76
2021/01/16 04:53:52;;;;;;;34.95;32.95;;;1.10;99.80;;;;;;4998801;28;20640;-76
2021/01/16 04:56:19;;;;;;;37.55;35.17;;;1.10;99.60;;;;;;4999030;28;20184;-76
2021/01/16 04:58:44;;;;;;;34.60;32.20;;;1.10;99.60;;;;;;4999979;28;20202;-76
2021/01/16 05:01:10;;;;;;;36.90;34.70;;;1.10;99.50;;;;;;5000208;28;20250;-76
2021/01/16 05:03:44;;;;;;;41.85;39.55;;;1.00;99.20;;;;;;5000038;28;20251;-76
2021/01/16 05:06:12;;;;;;;44.47;41.50;;;0.90;99.40;;;;;;5000182;28;20199;-76
2021/01/16 05:08:40;;;;;;;39.83;37.20;;;0.90;99.40;;;;;;4999072;28;20208;-76
2021/01/16 05:11:14;;;;;;;39.13;36.92;;;0.90;99.30;;;;;;4995668;28;20183;-76
2021/01/16 05:13:45;;;;;;;36.97;34.85;;;0.80;99.20;;;;;;4996814;28;20191;-76
2021/01/16 05:16:15;;;;;;;37.08;34.88;;;0.90;99.60;;;;;;4996710;28;20183;-76
2021/01/16 05:18:43;;;;;;;37.05;34.78;;;0.90;99.60;;;;;;4997219;28;20183;-76
2021/01/16 05:21:12;;;;;;;37.22;34.70;;;0.80;99.40;;;;;;4995444;28;20180;-76
2021/01/16 05:23:43;;;;;;;35.42;33.08;;;0.80;99.50;;;;;;4996849;28;20179;-76
2021/01/16 05:26:09;;;;;;;32.50;30.70;;;0.90;99.50;;;;;;4996568;28;20198;-76
2021/01/16 05:28:36;;;;;;;33.30;31.25;;;0.90;99.10;;;;;;4995544;28;20206;-76
2021/01/16 05:31:04;;;;;;;34.90;32.75;;;0.90;99.30;;;;;;4996994;28;20191;-76
2021/01/16 05:33:33;;;;;;;35.50;33.30;;;0.90;99.10;;;;;;4996448;28;20191;-76
2021/01/16 05:36:01;;;;;;;34.00;32.10;;;1.00;98.90;;;;;;4996197;28;20234;-76
2021/01/16 05:38:39;;;;;;;25.75;23.92;;;0.80;98.60;;;;;;4996596;28;20254;-76
2021/01/16 05:41:09;;;;;;;36.63;34.25;;;0.70;98.40;;;;;;4996642;28;20156;-76
2021/01/16 05:43:35;;;;;;;31.88;29.80;;;0.70;98.50;;;;;;4995143;28;20161;-76
2021/01/16 05:46:04;;;;;;;35.28;32.92;;;0.70;98.70;;;;;;4996247;28;20179;-76
2021/01/16 05:48:32;;;;;;;37.17;35.08;;;0.70;98.70;;;;;;4996141;28;20191;-76
2021/01/16 05:50:59;;;;;;;37.08;34.88;;;0.70;98.90;;;;;;4996192;28;20254;-76
2021/01/16 05:53:26;;;;;;;36.92;34.85;;;0.70;98.70;;;;;;4996090;28;20227;-76
2021/01/16 05:55:56;;;;;;;37.60;35.35;;;0.70;98.40;;;;;;4994733;28;20172;-76
2021/01/16 05:58:26;;;;;;;33.88;31.92;;;0.60;98.40;;;;;;4996069;28;20172;-76
2021/01/16 06:00:52;;;;;;;34.92;32.60;;;0.50;98.50;;;;;;4996049;28;20158;-76
2021/01/16 06:03:19;;;;;;;36.40;34.27;;;0.50;98.70;;;;;;4995980;28;20603;-76
2021/01/16 06:05:50;;;;;;;40.88;38.28;;;0.60;98.70;;;;;;4995869;28;20399;-76
2021/01/16 06:08:17;;;;;;;34.92;32.75;;;0.60;98.60;;;;;;4996285;28;20204;-76
2021/01/16 06:10:44;;;;;;;35.15;33.05;;;0.60;98.70;;;;;;4995724;28;20642;-76
2021/01/16 06:13:16;;;;;;;36.03;33.70;;;0.60;98.30;;;;;;4995745;28;20208;-76
2021/01/16 06:15:45;;;;;;;30.92;29.02;;;0.60;98.50;;;;;;4995307;28;20168;-76
2021/01/16 06:18:20;;;;;;;34.45;32.35;;;0.60;98.10;;;;;;4995601;28;20199;-76
2021/01/16 06:20:51;;;;;;;34.65;32.70;;;0.70;98.60;;;;;;4995607;28;20243;-76
2021/01/16 06:23:19;;;;;;;38.17;35.92;;;0.60;98.30;;;;;;4995986;28;20178;-76
2021/01/16 06:25:49;;;;;;;33.22;31.23;;;0.70;98.70;;;;;;4995922;28;20711;-76
2021/01/16 06:28:18;;;;;;;35.75;33.50;;;0.70;98.30;;;;;;4995710;28;20690;-76
2021/01/16 06:30:46;;;;;;;33.95;31.75;;;0.70;98.40;;;;;;4995700;28;20175;-76
2021/01/16 06:33:29;;;;;;;29.50;27.48;;;0.60;98.30;;;;;;4995578;28;20204;-76
2021/01/16 06:35:58;;;;;;;29.67;27.55;;;0.60;98.40;;;;;;4994062;28;20156;-76
2021/01/16 06:38:25;;;;;;;29.88;28.08;;;0.60;98.40;;;;;;4995210;28;20187;-76
2021/01/16 06:40:53;;;;;;;32.20;30.30;;;0.50;98.40;;;;;;4995235;28;20697;-76
2021/01/16 06:43:23;;;;;;;31.13;29.15;;;0.60;98.50;;;;;;4995567;28;20206;-76
2021/01/16 06:45:49;;;;;;;33.03;31.27;;;0.60;98.20;;;;;;4995426;28;20258;-76
2021/01/16 06:48:15;;;;;;;35.00;33.10;;;0.50;98.10;;;;;;4995077;28;20200;-76
2021/01/16 06:50:40;;;;;;;33.60;31.70;;;0.60;98.20;;;;;;4995057;28;20251;-76
2021/01/16 06:53:26;;;;;;;30.87;28.97;;;0.60;98.20;;;;;;4995221;28;20454;-76
2021/01/16 06:56:06;;;;;;;31.73;29.92;;;0.50;98.00;;;;;;4995153;28;20637;-76
2021/01/16 06:58:41;;;;;;;33.42;31.55;;;0.50;98.30;;;;;;4995253;28;20278;-76
2021/01/16 07:01:09;;;;;;;31.92;29.83;;;0.40;97.80;;;;;;4995210;28;20155;-76
2021/01/16 07:03:39;;;;;;;31.30;29.33;;;0.40;98.10;;;;;;4994888;28;20172;-76
2021/01/16 07:06:07;;;;;;;31.38;29.38;;;0.40;97.80;;;;;;4994739;28;20186;-76
2021/01/16 07:08:33;;;;;;;35.35;33.45;;;0.30;97.80;;;;;;4994628;28;20222;-76
2021/01/16 07:11:00;;;;;;;34.75;32.78;;;0.40;98.10;;;;;;4994706;28;20510;-76
2021/01/16 07:13:30;;;;;;;36.10;33.92;;;0.40;98.00;;;;;;4994616;28;20708;-76
2021/01/16 07:15:56;;;;;;;34.47;32.00;;;0.40;98.10;;;;;;4995065;28;20219;-76
2021/01/16 07:18:21;;;;;;;36.65;34.60;;;0.30;97.60;;;;;;4994514;28;20525;-75
2021/01/16 07:20:48;;;;;;;34.93;32.97;;;0.20;97.80;;;;;;4995130;28;20172;-76
2021/01/16 07:23:17;;;;;;;40.50;38.40;;;0.40;98.10;;;;;;4994821;28;20207;-76
2021/01/16 07:25:42;;;;;;;33.05;31.25;;;0.40;97.90;;;;;;4994411;28;20211;-76
2021/01/16 07:28:10;;;;;;;31.37;29.70;;;0.40;97.80;;;;;;4994955;28;20203;-76
2021/01/16 07:30:36;;;;;;;31.10;29.15;;;0.20;97.40;;;;;;4994381;28;20411;-76
2021/01/16 07:33:03;;;;;;;37.20;35.08;;;0.10;97.40;;;;;;4993660;28;20801;-76
2021/01/16 07:35:29;;;;;;;35.45;33.58;;;0.10;97.70;;;;;;4994519;28;20175;-77
2021/01/16 07:37:55;;;;;;;31.77;29.63;;;0.20;98.00;;;;;;4994981;28;20531;-76
2021/01/16 07:40:21;;;;;;;28.75;26.85;;;0.10;97.40;;;;;;4993426;28;20191;-76
2021/01/16 07:42:58;;;;;;;26.98;25.23;;;0.10;97.50;;;;;;4994449;28;20178;-76
2021/01/16 07:45:29;;;;;;;34.67;32.65;;;0.20;97.50;;;;;;4994167;28;20178;-76
2021/01/16 07:47:57;;;;;;;33.33;31.27;;;0.30;97.80;;;;;;4994168;28;20187;-76
2021/01/16 07:50:25;;;;;;;28.42;26.40;;;0.30;97.80;;;;;;4994421;28;20188;-76
2021/01/16 07:53:01;;;;;;;31.20;28.95;;;0.30;97.80;;;;;;4994041;28;20207;-76
2021/01/16 07:55:44;;;;;;;34.20;32.05;;;0.30;97.60;;;;;;4994360;28;20172;-76
2021/01/16 07:58:31;;;;;;;29.02;26.95;;;0.40;97.80;;;;;;4992823;28;20164;-76
2021/01/16 08:01:07;;;;;;;32.22;30.20;;;0.40;97.70;;;;;;4992879;28;20186;-76
2021/01/16 08:03:58;;;;;;;29.65;27.80;;;0.50;97.80;;;;;;4993399;28;20239;-76
2021/01/16 08:06:53;;;;;;;33.00;30.55;;;0.40;97.40;;;;;;4993216;28;20199;-75
2021/01/16 08:09:29;;;;;;;30.45;28.35;;;0.30;97.50;;;;;;4992383;28;20204;-74
2021/01/16 08:12:00;;;;;;;30.75;28.85;;;0.20;97.40;;;;;;4994697;28;20164;-74
2021/01/16 08:14:32;;;;;;;29.70;27.52;;;0.10;97.60;;;;;;4994418;28;20156;-74
2021/01/16 08:16:59;;;;;;;34.50;31.73;;;0.20;98.20;;;;;;4993965;28;20504;-74
2021/01/16 08:19:32;;;;;;;32.08;30.25;;;0.20;98.00;;;;;;4994189;28;20639;-74
2021/01/16 08:21:59;;;;;;;36.13;33.72;;;0.20;97.90;;;;;;4994467;28;20323;-73
2021/01/16 08:24:28;;;;;;;25.77;23.95;;;0.20;97.70;;;;;;4993885;28;20533;-75
2021/01/16 08:27:01;;;;;;;33.13;30.90;;;0.30;98.00;;;;;;4993733;28;20175;-74
2021/01/16 08:29:29;;;;;;;26.67;24.73;;;0.40;98.10;;;;;;4993778;28;20219;-74
2021/01/16 08:32:12;;;;;;;31.40;29.38;;;0.40;97.90;;;;;;4991301;28;20172;-75
2021/01/16 08:34:47;;;;;;;32.35;30.45;;;0.40;98.00;;;;;;4979371;28;20665;-74
2021/01/16 08:37:31;;;;;;;38.17;35.95;;;0.30;98.00;;;;;;4980675;28;20198;-74
2021/01/16 08:39:58;;;;;;;33.33;31.15;;;0.30;98.00;;;;;;4980139;28;20200;-74
2021/01/16 08:42:28;;;;;;;31.48;29.27;;;0.30;97.90;;;;;;4982410;28;20729;-74
2021/01/16 08:44:57;;;;;;;32.58;30.48;;;0.40;97.90;;;;;;4982976;28;20281;-75
2021/01/16 08:47:23;;;;;;;29.27;27.08;;;0.40;97.60;;;;;;4985678;28;20183;-75
2021/01/16 08:49:49;;;;;;;32.33;30.52;;;0.30;97.70;;;;;;4993987;28;20199;-73
2021/01/16 08:52:35;;;;;;;31.87;30.07;;;0.30;98.10;;;;;;4985741;28;20196;-75
2021/01/16 08:55:02;;;;;;;37.60;35.15;;;0.30;97.90;;;;;;4989160;28;20481;-74
2021/01/16 08:57:33;;;;;;;32.00;29.80;;;0.30;98.00;;;;;;4984389;28;20172;-75
2021/01/16 09:00:23;;;;;;;32.40;30.38;;;0.30;97.80;;;;;;4994302;28;20200;-75
2021/01/16 09:03:12;;;;;;;36.40;34.45;;;0.40;98.00;;;;;;4999276;28;20180;-75
2021/01/16 09:05:39;;;;;;;39.22;36.70;;;0.50;98.00;;;;;;4996891;28;20172;-75
2021/01/16 09:08:34;;;;;;;33.70;31.63;;;0.60;98.10;;;;;;4997602;28;20176;-75
2021/01/16 09:11:13;;;;;;;37.72;35.30;;;0.70;98.10;;;;;;5000809;28;20218;-75
2021/01/16 09:13:43;;;;;;;33.20;31.20;;;0.70;97.80;;;;;;4996820;28;20196;-75
2021/01/16 09:16:29;;;;;;;38.35;36.05;;;0.70;97.70;;;;;;5028480;28;20176;-75
2021/01/16 09:18:56;;;;;;;34.05;32.05;;;0.80;98.20;;;;;;4997165;28;20179;-74
2021/01/16 09:21:26;;;;;;;38.25;34.70;;;0.80;97.90;;;;;;4996760;28;20200;-75
2021/01/16 09:23:52;;;;;;;33.05;30.90;;;0.90;98.20;;;;;;4996699;28;20175;-74
2021/01/16 09:26:20;;;;;;;31.80;29.65;;;0.90;98.00;;;;;;4995291;28;20184;-75
2021/01/16 09:28:47;;;;;;;32.67;30.58;;;0.90;97.80;;;;;;5028359;28;20226;-75
2021/01/16 09:31:24;;;;;;;40.10;37.63;;;0.90;98.10;;;;;;4995388;28;20245;-75
2021/01/16 09:33:53;;;;;;;37.65;35.33;;;1.00;98.20;;;;;;4994284;28;20191;-74
2021/01/16 09:36:46;;;;;;;31.85;30.05;;;1.00;97.80;;;;;;4993970;28;20190;-75
2021/01/16 09:39:21;;;;;;;36.30;33.80;;;1.00;98.00;;;;;;4988682;28;20200;-75
2021/01/16 09:41:48;;;;;;;30.95;28.63;;;0.90;97.80;;;;;;4981470;28;20184;-75
2021/01/16 09:44:15;;;;;;;31.77;29.58;;;1.00;98.00;;;;;;4981195;28;20546;-75
2021/01/16 09:46:42;;;;;;;29.70;27.38;;;1.10;98.20;;;;;;4992379;28;20203;-75
2021/01/16 09:49:11;;;;;;;26.80;24.60;;;1.10;98.30;;;;;;4994969;28;20554;-75
2021/01/16 09:51:37;;;;;;;27.52;25.42;;;1.20;98.30;;;;;;4995362;28;20180;-75
2021/01/16 09:54:14;;;;;;;28.63;26.70;;;1.30;98.00;;;;;;4994930;28;20222;-75
2021/01/16 09:56:49;;;;;;;32.35;30.08;;;1.30;98.30;;;;;;4994431;28;20168;-75
2021/01/16 09:59:24;;;;;;;31.13;28.17;;;1.40;98.40;;;;;;4995121;28;20275;-75
2021/01/16 10:02:12;;;;;;;29.88;27.50;;;1.40;98.00;;;;;;4995159;28;20179;-74
2021/01/16 10:04:43;;;;;;;30.73;28.52;;;1.40;97.90;;;;;;4995104;28;20175;-75
2021/01/16 10:07:14;;;;;;;34.70;32.70;;;1.30;97.80;;;;;;4993626;28;20183;-74
2021/01/16 10:09:48;;;;;;;36.78;34.13;;;1.20;97.50;;;;;;4994819;28;20254;-74
2021/01/16 10:12:38;;;;;;;32.83;30.63;;;1.30;98.00;;;;;;4994756;28;20195;-75
2021/01/16 10:15:06;;;;;;;29.25;27.13;;;1.20;97.70;;;;;;4996466;28;20176;-75
2021/01/16 10:17:36;;;;;;;32.50;29.88;;;1.00;97.80;;;;;;4994178;28;20657;-75
2021/01/16 10:20:13;;;;;;;32.40;30.13;;;1.20;98.40;;;;;;4994809;28;20223;-75
2021/01/16 10:22:43;;;;;;;36.47;34.00;;;1.20;98.10;;;;;;5016744;28;20187;-75
2021/01/16 10:25:11;;;;;;;41.30;38.65;;;1.30;98.50;;;;;;4980925;28;20184;-75
2021/01/16 10:27:43;;;;;;;34.28;32.05;;;1.40;98.10;;;;;;4978755;28;20188;-75
2021/01/16 10:30:18;;;;;;;39.53;37.35;;;1.50;98.00;;;;;;4975455;28;20655;-75
2021/01/16 10:32:45;;;;;;;35.47;33.17;;;1.50;98.00;;;;;;4974977;28;20203;-75
2021/01/16 10:35:21;;;;;;;32.17;29.27;;;1.50;98.10;;;;;;4980157;28;20180;-74
2021/01/16 10:37:47;;;;;;;29.70;27.33;;;1.60;98.10;;;;;;4985313;28;20196;-74
2021/01/16 10:40:13;;;;;;;32.37;29.73;;;1.50;98.10;;;;;;4993575;28;20262;-74
2021/01/16 10:42:43;;;;;;;33.80;31.90;;;1.60;98.00;;;;;;4993964;28;20815;-73
2021/01/16 10:45:10;;;;;;;33.75;31.40;;;1.50;98.20;;;;;;4993260;28;20167;-73
2021/01/16 10:47:37;;;;;;;33.15;30.65;;;1.60;98.50;;;;;;4992842;28;20172;-73
2021/01/16 10:50:11;;;;;;;34.08;31.48;;;1.70;98.60;;;;;;4993219;28;20238;-73
2021/01/16 10:52:37;;;;;;;37.45;35.15;;;1.80;98.40;;;;;;4991826;28;20769;-73
2021/01/16 10:55:11;;;;;;;33.67;31.48;;;1.80;98.30;;;;;;4992809;28;20218;-73
2021/01/16 10:57:49;;;;;;;29.75;27.92;;;1.80;98.40;;;;;;4992970;28;20259;-73
2021/01/16 11:00:17;;;;;;;35.03;32.50;;;1.90;98.30;;;;;;4992957;28;20543;-73
2021/01/16 11:02:47;;;;;;;33.75;31.83;;;1.90;98.10;;;;;;4992987;28;20176;-73
2021/01/16 11:05:16;;;;;;;35.30;32.90;;;2.00;98.20;;;;;;4992747;28;20592;-73
2021/01/16 11:07:43;;;;;;;35.75;33.15;;;2.10;98.40;;;;;;4990851;28;20184;-73
2021/01/16 11:10:10;;;;;;;32.80;30.95;;;2.10;98.10;;;;;;4992435;28;20230;-73
2021/01/16 11:12:40;;;;;;;34.40;31.92;;;2.00;97.90;;;;;;4992740;28;20207;-73
2021/01/16 11:15:30;;;;;;;34.13;31.70;;;2.00;98.50;;;;;;4992628;28;20563;-73
2021/01/16 11:17:58;;;;;;;37.67;35.28;;;2.00;98.40;;;;;;4992465;28;20184;-73
2021/01/16 11:20:30;;;;;;;36.08;33.53;;;2.00;98.00;;;;;;4992889;28;20815;-73
2021/01/16 11:23:04;;;;;;;28.23;26.00;;;2.00;98.10;;;;;;4992687;28;20183;-73
2021/01/16 11:25:47;;;;;;;33.88;31.35;;;2.10;98.10;;;;;;4983208;28;20195;-73
2021/01/16 11:28:18;;;;;;;35.22;32.67;;;2.10;98.40;;;;;;4973020;28;20698;-73
2021/01/16 11:30:46;;;;;;;37.28;34.92;;;2.20;98.50;;;;;;4973163;28;20315;-73
2021/01/16 11:33:23;;;;;;;32.22;30.13;;;2.30;98.50;;;;;;4972999;28;20235;-73
2021/01/16 11:36:03;;;;;;;32.13;29.95;;;2.30;98.30;;;;;;4980706;28;20183;-73
2021/01/16 11:38:39;;;;;;;34.40;32.17;;;2.30;98.30;;;;;;4992141;28;20555;-73
2021/01/16 11:41:06;;;;;;;37.95;35.42;;;2.20;98.00;;;;;;4992304;28;20168;-73
2021/01/16 11:43:31;;;;;;;36.10;33.65;;;2.20;98.00;;;;;;4984046;28;20207;-73
2021/01/16 11:46:05;;;;;;;32.90;30.37;;;2.30;98.10;;;;;;4981115;28;20176;-73
2021/01/16 11:48:32;;;;;;;30.35;27.70;;;2.40;98.20;;;;;;4973633;28;20200;-73
2021/01/16 11:51:18;;;;;;;27.58;25.30;;;2.40;98.10;;;;;;4972495;28;20176;-73
2021/01/16 11:53:50;;;;;;;28.05;26.10;;;2.50;98.00;;;;;;4972800;28;20315;-73
2021/01/16 11:56:19;;;;;;;27.85;25.70;;;2.60;98.00;;;;;;4972704;28;20184;-73
2021/01/16 11:58:46;;;;;;;29.77;27.65;;;2.50;97.90;;;;;;4972668;28;20239;-73
2021/01/16 12:01:16;;;;;;;30.20;28.00;;;2.60;98.20;;;;;;4973030;28;20176;-73
2021/01/16 12:03:42;;;;;;;37.50;35.20;;;2.70;98.20;;;;;;4970888;28;20176;-73
2021/01/16 12:06:27;;;;;;;38.17;35.70;;;2.70;97.90;;;;;;4972531;28;20185;-72
2021/01/16 12:08:53;;;;;;;37.88;35.42;;;2.70;97.70;;;;;;4972791;28;20935;-73
2021/01/16 12:11:19;;;;;;;34.40;32.10;;;2.80;98.00;;;;;;4972637;28;20192;-73
2021/01/16 12:13:51;;;;;;;34.80;32.00;;;2.80;98.00;;;;;;4974993;28;20250;-73
2021/01/16 12:16:18;;;;;;;33.25;30.45;;;2.80;98.00;;;;;;4989867;28;20190;-73
2021/01/16 12:18:44;;;;;;;35.63;33.47;;;2.90;98.10;;;;;;4991693;28;20647;-73
2021/01/16 12:21:11;;;;;;;34.17;31.87;;;2.90;98.00;;;;;;4995227;28;20187;-73
2021/01/16 12:23:46;;;;;;;31.38;29.13;;;3.00;97.80;;;;;;4995798;28;20656;-72
2021/01/16 12:26:15;;;;;;;37.50;35.10;;;2.90;97.70;;;;;;4995412;28;20258;-72
2021/01/16 12:28:49;;;;;;;33.65;31.60;;;2.80;97.80;;;;;;4995625;28;20757;-73
2021/01/16 12:31:22;;;;;;;34.17;31.98;;;2.90;97.70;;;;;;5027397;28;20206;-73
2021/01/16 12:33:48;;;;;;;32.30;30.30;;;2.90;97.80;;;;;;4994012;28;20304;-73
2021/01/16 12:36:14;;;;;;;35.30;32.90;;;3.00;97.90;;;;;;4995143;28;20183;-73
2021/01/16 12:38:40;;;;;;;31.90;29.38;;;3.00;98.10;;;;;;4995568;28;20191;-73
2021/01/16 12:41:06;;;;;;;28.63;26.70;;;2.90;98.00;;;;;;4995514;28;20788;-73
2021/01/16 12:43:32;;;;;;;29.57;27.00;;;2.80;98.00;;;;;;4994857;28;20414;-73
2021/01/16 12:46:05;;;;;;;31.40;29.30;;;2.80;98.20;;;;;;4993574;28;20271;-73
2021/01/16 12:48:31;;;;;;;31.67;29.75;;;2.70;98.10;;;;;;4995473;28;20434;-73
2021/01/16 12:50:58;;;;;;;30.67;28.73;;;2.70;98.30;;;;;;4994099;28;20184;-73